Terminal Aerodrome Forecast
Issued by NWS Brownsville, TX

Home | Current Version | Previous Version | Text Only | Print | Product List | Glossary On
Versions: 1 2 3 4 5 6 7 8 9 10 11 12 13 14 15 16 17 18 19 20
000
FTUS44 KBRO 230300 AAA
TAFBRO
TAF AMD
KBRO 230308Z 2303/2324 20015KT 6SM BR VCTS OVC015CB
      TEMPO 2304/2306 VRB20KT 3SM +TSRA BKN012CB
     FM230700 22008KT P6SM BKN120
     FM231500 26010KT P6SM FEW035=

USA.gov is the U.S. government's official web portal to all federal, state and local government web resources and services.